Time;durP1;ratioP1;P1;durP2;ratioP2;P2;SDS_P1;SDS_P2;PMS_P1;PMS_P2;Temp;Humidity;BMP_temperature;BMP_pressure;BME280_temperature;BME280_humidity;BME280_pressure;Samples;Min_cycle;Max_cycle;Signal;HPM_P1;HPM_P2
2020/12/24 00:00:25;;;;;;;1.88;0.73;;;11.00;99.90;;;;;;5092969;28;20172;-76
2020/12/24 00:02:51;;;;;;;0.10;0.10;;;11.00;99.90;;;;;;5093029;28;20244;-76
2020/12/24 00:05:16;;;;;;;1.65;0.45;;;11.00;99.90;;;;;;5092858;28;20553;-76
2020/12/24 00:07:42;;;;;;;3.83;0.35;;;11.10;99.90;;;;;;5093225;28;20529;-77
2020/12/24 00:10:08;;;;;;;0.25;0.25;;;10.90;99.90;;;;;;5092849;28;20190;-76
2020/12/24 00:12:34;;;;;;;0.20;0.20;;;11.00;99.90;;;;;;5092722;28;20166;-76
2020/12/24 00:15:00;;;;;;;0.32;0.32;;;11.00;99.90;;;;;;5092745;28;20273;-76
2020/12/24 00:17:25;;;;;;;0.32;0.32;;;11.00;99.90;;;;;;5092709;28;20181;-75
2020/12/24 00:19:51;;;;;;;0.32;0.32;;;11.10;99.90;;;;;;5094447;28;20158;-75
2020/12/24 00:22:16;;;;;;;0.20;0.20;;;11.00;99.90;;;;;;5096360;28;20250;-75
2020/12/24 00:24:42;;;;;;;0.20;0.20;;;10.90;99.90;;;;;;5096291;28;20517;-76
2020/12/24 00:27:08;;;;;;;0.90;0.80;;;10.90;99.90;;;;;;5096332;28;20174;-77
2020/12/24 00:29:33;;;;;;;0.40;0.40;;;11.10;99.90;;;;;;5096233;28;20247;-76
2020/12/24 00:31:59;;;;;;;3.30;1.00;;;11.00;99.90;;;;;;5078074;28;20165;-76
2020/12/24 00:34:24;;;;;;;0.10;0.10;;;10.90;99.90;;;;;;5096159;28;20193;-76
2020/12/24 00:36:50;;;;;;;2.05;0.98;;;10.90;99.90;;;;;;5096467;28;20567;-75
2020/12/24 00:39:16;;;;;;;1.40;1.33;;;10.90;99.90;;;;;;5096053;28;20162;-75
2020/12/24 00:41:41;;;;;;;0.43;0.43;;;10.90;99.90;;;;;;5096044;28;20232;-76
2020/12/24 00:44:07;;;;;;;0.40;0.40;;;10.90;99.90;;;;;;5095868;28;20208;-76
2020/12/24 00:46:32;;;;;;;0.20;0.20;;;10.80;99.90;;;;;;5096006;28;20181;-76
2020/12/24 00:48:58;;;;;;;0.10;0.10;;;10.70;99.90;;;;;;5095618;28;20220;-78
2020/12/24 00:51:23;;;;;;;0.30;0.30;;;10.50;99.90;;;;;;5095869;28;20154;-75
2020/12/24 00:53:49;;;;;;;0.38;0.38;;;10.50;99.90;;;;;;5095743;28;20162;-75
2020/12/24 00:56:14;;;;;;;0.75;0.75;;;10.60;99.90;;;;;;5095685;28;20204;-76
2020/12/24 00:58:40;;;;;;;0.50;0.50;;;10.50;99.90;;;;;;5095794;28;20166;-76
2020/12/24 01:01:06;;;;;;;2.17;1.25;;;10.40;99.90;;;;;;5095581;28;20192;-75
2020/12/24 01:03:32;;;;;;;6.38;0.60;;;10.30;99.90;;;;;;5095666;28;20519;-76
2020/12/24 01:05:57;;;;;;;17.48;1.77;;;10.20;99.90;;;;;;5095461;28;20182;-76
2020/12/24 01:08:23;;;;;;;0.22;0.22;;;10.40;99.90;;;;;;5095622;28;20542;-77
2020/12/24 01:10:49;;;;;;;0.40;0.40;;;10.30;99.90;;;;;;5095657;28;20629;-76
2020/12/24 01:13:15;;;;;;;0.73;0.73;;;10.30;99.90;;;;;;5095588;28;20177;-75
2020/12/24 01:15:40;;;;;;;0.20;0.20;;;10.40;99.90;;;;;;5077438;28;20268;-76
2020/12/24 01:18:06;;;;;;;0.55;0.55;;;10.50;99.90;;;;;;5095639;28;20513;-77
2020/12/24 01:20:31;;;;;;;0.45;0.45;;;10.50;99.90;;;;;;5095300;28;20168;-78
2020/12/24 01:22:57;;;;;;;0.20;0.20;;;10.70;99.90;;;;;;5097374;28;20202;-75
2020/12/24 01:25:23;;;;;;;0.10;0.10;;;10.60;99.90;;;;;;5099380;28;20186;-77
2020/12/24 01:27:48;;;;;;;0.20;0.20;;;10.70;99.90;;;;;;5095185;28;20181;-75
2020/12/24 01:30:14;;;;;;;7.57;1.05;;;10.60;99.90;;;;;;5094575;28;20651;-76
2020/12/24 01:32:39;;;;;;;3.55;0.45;;;10.60;99.90;;;;;;5096359;28;20281;-77
2020/12/24 01:35:05;;;;;;;0.20;0.20;;;10.60;99.90;;;;;;5097218;28;20189;-77
2020/12/24 01:37:33;;;;;;;4.47;1.65;;;10.40;99.90;;;;;;5095045;28;20179;-75
2020/12/24 01:39:59;;;;;;;0.10;0.10;;;10.30;99.90;;;;;;5095055;28;20154;-76
2020/12/24 01:42:25;;;;;;;0.20;0.20;;;10.40;99.90;;;;;;5094941;28;20212;-76
2020/12/24 01:44:50;;;;;;;0.13;0.13;;;10.30;99.90;;;;;;5094823;28;20181;-77
2020/12/24 01:47:16;;;;;;;1.50;1.40;;;10.30;99.90;;;;;;5094605;28;20216;-77
2020/12/24 01:49:42;;;;;;;4.88;1.20;;;10.30;99.90;;;;;;5094880;28;20246;-76
2020/12/24 01:52:29;;;;;;;0.52;0.50;;;10.40;99.90;;;;;;5094971;28;20509;-76
2020/12/24 01:54:55;;;;;;;0.20;0.20;;;10.40;99.90;;;;;;5101254;28;20178;-75
2020/12/24 01:57:21;;;;;;;0.30;0.30;;;10.50;99.90;;;;;;5110908;28;20191;-77
2020/12/24 01:59:47;;;;;;;0.40;0.40;;;10.60;99.90;;;;;;5111669;28;20803;-76
2020/12/24 02:02:12;;;;;;;0.60;0.60;;;10.60;99.90;;;;;;5101957;28;20202;-77
2020/12/24 02:04:38;;;;;;;0.90;0.75;;;10.50;99.90;;;;;;5095542;28;20204;-75
2020/12/24 02:07:04;;;;;;;18.25;2.42;;;10.50;99.90;;;;;;5094768;28;20165;-75
2020/12/24 02:09:30;;;;;;;1.40;1.35;;;10.60;99.90;;;;;;5094412;28;20173;-76
2020/12/24 02:11:56;;;;;;;2.00;0.90;;;10.60;99.90;;;;;;5094398;28;20668;-76
2020/12/24 02:14:21;;;;;;;0.95;0.55;;;10.50;99.90;;;;;;5094355;28;20217;-76
2020/12/24 02:16:47;;;;;;;0.38;0.38;;;10.30;99.90;;;;;;5094098;28;20177;-76
2020/12/24 02:19:13;;;;;;;11.07;1.38;;;10.40;99.90;;;;;;5094305;28;20208;-76
2020/12/24 02:21:38;;;;;;;0.10;0.10;;;10.40;99.90;;;;;;5094056;28;20552;-76
2020/12/24 02:24:04;;;;;;;0.22;0.22;;;10.50;99.90;;;;;;5094035;28;20243;-76
2020/12/24 02:26:30;;;;;;;0.10;0.10;;;10.40;99.90;;;;;;5093942;28;20177;-75
2020/12/24 02:28:56;;;;;;;0.73;0.73;;;10.30;99.90;;;;;;5094006;28;20699;-76
2020/12/24 02:31:21;;;;;;;2.92;1.33;;;10.40;99.90;;;;;;5094157;28;20170;-76
2020/12/24 02:33:47;;;;;;;0.70;0.70;;;10.30;99.90;;;;;;5093741;28;20618;-76
2020/12/24 02:36:13;;;;;;;0.17;0.17;;;10.30;99.90;;;;;;5093843;28;20173;-76
2020/12/24 02:38:38;;;;;;;0.30;0.30;;;10.40;99.90;;;;;;5093892;28;20215;-76
2020/12/24 02:41:04;;;;;;;0.13;0.13;;;10.40;99.90;;;;;;5093608;28;20544;-76
2020/12/24 02:43:30;;;;;;;0.10;0.10;;;10.40;99.90;;;;;;5093188;28;20185;-74
2020/12/24 02:45:56;;;;;;;0.20;0.20;;;10.40;99.90;;;;;;5093727;28;20261;-73
2020/12/24 02:48:22;;;;;;;1.33;0.32;;;10.30;99.90;;;;;;5093568;28;20222;-74
2020/12/24 02:50:47;;;;;;;0.35;0.15;;;10.30;99.90;;;;;;5093601;28;20193;-75
2020/12/24 02:53:13;;;;;;;1.08;0.85;;;10.30;99.90;;;;;;5093615;28;20178;-74
2020/12/24 02:55:38;;;;;;;1.67;0.88;;;10.20;99.90;;;;;;5093491;28;20268;-74
2020/12/24 02:58:04;;;;;;;0.10;0.10;;;10.30;99.90;;;;;;5093503;28;20166;-75
2020/12/24 03:00:31;;;;;;;12.63;0.90;;;10.30;99.90;;;;;;5093525;28;20162;-75
2020/12/24 03:02:57;;;;;;;0.17;0.17;;;10.20;99.90;;;;;;5093413;28;20201;-75
2020/12/24 03:05:22;;;;;;;3.55;0.73;;;10.20;99.90;;;;;;5093369;28;20653;-75
2020/12/24 03:07:49;;;;;;;0.73;0.73;;;10.10;99.90;;;;;;5093421;28;20162;-75
2020/12/24 03:10:15;;;;;;;0.10;0.10;;;10.00;99.90;;;;;;5093350;28;20172;-75
2020/12/24 03:12:40;;;;;;;0.38;0.38;;;10.10;99.90;;;;;;5093365;28;20245;-75
2020/12/24 03:15:06;;;;;;;0.55;0.55;;;10.10;99.90;;;;;;5093290;28;20193;-76
2020/12/24 03:17:31;;;;;;;0.10;0.10;;;10.30;99.90;;;;;;5093460;28;20174;-75
2020/12/24 03:19:57;;;;;;;1.02;0.73;;;10.30;99.90;;;;;;5093231;28;20680;-75
2020/12/24 03:22:23;;;;;;;0.10;0.10;;;10.20;99.90;;;;;;5093188;28;20566;-76
2020/12/24 03:24:48;;;;;;;0.57;0.57;;;10.30;99.90;;;;;;5093175;28;20182;-76
2020/12/24 03:27:14;;;;;;;0.15;0.15;;;10.20;99.90;;;;;;5093153;28;20174;-76
2020/12/24 03:29:39;;;;;;;0.10;0.10;;;10.30;99.90;;;;;;5075082;28;20197;-75
2020/12/24 03:32:05;;;;;;;0.10;0.10;;;10.20;99.90;;;;;;5093305;28;20166;-76
2020/12/24 03:34:30;;;;;;;0.20;0.20;;;10.10;99.90;;;;;;5093118;28;20188;-76
2020/12/24 03:36:56;;;;;;;1.00;0.93;;;10.20;99.90;;;;;;5093030;28;20170;-76
2020/12/24 03:39:21;;;;;;;1.55;0.85;;;10.20;99.90;;;;;;5093068;28;20551;-76
2020/12/24 03:41:47;;;;;;;0.20;0.20;;;10.10;99.90;;;;;;5093043;28;20218;-75
2020/12/24 03:44:13;;;;;;;0.20;0.20;;;9.90;99.90;;;;;;5074801;28;20196;-76
2020/12/24 03:46:39;;;;;;;9.68;0.90;;;9.90;99.90;;;;;;5093066;28;20643;-75
2020/12/24 03:49:05;;;;;;;6.50;1.05;;;9.90;99.90;;;;;;5092679;28;20692;-76
2020/12/24 03:51:31;;;;;;;0.25;0.25;;;10.00;99.90;;;;;;5092995;28;20310;-77
2020/12/24 03:53:56;;;;;;;2.08;0.95;;;10.00;99.90;;;;;;5094803;28;20269;-77
2020/12/24 03:56:22;;;;;;;0.40;0.40;;;9.90;99.90;;;;;;5097088;28;20170;-76
2020/12/24 03:58:47;;;;;;;0.10;0.10;;;9.80;99.90;;;;;;5097354;28;20580;-76
2020/12/24 04:01:13;;;;;;;0.20;0.20;;;9.80;99.90;;;;;;5096753;28;20251;-76
2020/12/24 04:03:38;;;;;;;0.20;0.20;;;9.80;99.90;;;;;;5096797;28;20161;-75
2020/12/24 04:06:05;;;;;;;0.10;0.10;;;9.80;99.90;;;;;;5096746;28;20690;-76
2020/12/24 04:08:31;;;;;;;2.42;1.17;;;10.10;99.90;;;;;;5096847;28;20212;-76
2020/12/24 04:10:56;;;;;;;1.25;1.15;;;10.10;99.90;;;;;;5096639;28;20153;-75
2020/12/24 04:13:22;;;;;;;0.20;0.20;;;10.00;99.90;;;;;;5096596;28;20166;-75
2020/12/24 04:15:47;;;;;;;0.10;0.10;;;10.10;99.90;;;;;;5096498;28;20186;-76
2020/12/24 04:18:13;;;;;;;0.70;0.70;;;10.20;99.90;;;;;;5096843;28;20264;-76
2020/12/24 04:20:39;;;;;;;0.22;0.22;;;10.20;99.90;;;;;;5096443;28;20162;-76
2020/12/24 04:23:04;;;;;;;1.10;1.10;;;10.10;99.90;;;;;;5096566;28;20217;-76
2020/12/24 04:25:30;;;;;;;0.10;0.10;;;10.10;99.90;;;;;;5104237;28;20233;-74
2020/12/24 04:27:55;;;;;;;0.28;0.28;;;9.80;99.90;;;;;;5115128;28;20204;-73
2020/12/24 04:30:21;;;;;;;0.10;0.10;;;9.80;99.90;;;;;;5121572;28;20177;-74
2020/12/24 04:32:47;;;;;;;0.10;0.10;;;9.80;99.90;;;;;;5100689;28;20196;-74
2020/12/24 04:35:12;;;;;;;10.80;0.88;;;9.80;99.90;;;;;;5096126;28;20188;-74
2020/12/24 04:37:38;;;;;;;0.20;0.20;;;9.70;99.90;;;;;;5096328;28;20190;-74
2020/12/24 04:40:03;;;;;;;0.10;0.10;;;9.70;99.90;;;;;;5096234;28;20201;-75
2020/12/24 04:42:30;;;;;;;0.10;0.10;;;9.60;99.90;;;;;;5096112;28;20201;-75
2020/12/24 04:44:58;;;;;;;0.10;0.10;;;9.70;99.90;;;;;;5095842;28;20185;-75
2020/12/24 04:47:24;;;;;;;10.27;1.15;;;9.70;99.90;;;;;;5095798;28;20220;-74
2020/12/24 04:49:51;;;;;;;0.10;0.10;;;9.70;99.90;;;;;;5095994;28;20671;-74
2020/12/24 04:52:17;;;;;;;0.85;0.85;;;9.70;99.90;;;;;;5095867;28;20249;-75
2020/12/24 04:54:42;;;;;;;0.20;0.20;;;9.70;99.90;;;;;;5095815;28;20217;-75
2020/12/24 04:57:09;;;;;;;0.13;0.13;;;9.70;99.90;;;;;;5095869;28;20615;-75
2020/12/24 04:59:36;;;;;;;0.20;0.20;;;9.80;99.90;;;;;;5095887;28;20177;-75
2020/12/24 05:02:03;;;;;;;2.85;0.65;;;9.70;99.90;;;;;;5095620;28;20186;-75
2020/12/24 05:04:30;;;;;;;0.57;0.38;;;9.90;99.90;;;;;;5095016;28;20266;-75
2020/12/24 05:07:05;;;;;;;0.70;0.70;;;9.90;99.90;;;;;;5095617;28;20232;-75
2020/12/24 05:09:32;;;;;;;0.17;0.17;;;10.00;99.90;;;;;;5095532;28;20249;-76
2020/12/24 05:11:58;;;;;;;0.25;0.25;;;10.20;99.90;;;;;;5095466;28;20169;-76
2020/12/24 05:14:25;;;;;;;0.22;0.22;;;10.10;99.90;;;;;;5095459;28;20193;-76
2020/12/24 05:17:07;;;;;;;2.55;0.80;;;9.90;99.90;;;;;;5095422;28;20517;-76
2020/12/24 05:19:47;;;;;;;0.43;0.43;;;9.80;99.90;;;;;;5095434;28;20765;-76
2020/12/24 05:22:17;;;;;;;13.05;0.60;;;9.90;99.90;;;;;;5095132;28;20208;-75
2020/12/24 05:24:43;;;;;;;0.20;0.20;;;9.90;99.90;;;;;;5095192;28;20266;-75
2020/12/24 05:27:15;;;;;;;1.30;1.10;;;10.00;99.90;;;;;;5095192;28;20524;-76
2020/12/24 05:29:43;;;;;;;0.20;0.20;;;10.00;99.90;;;;;;5095022;28;20189;-75
2020/12/24 05:32:09;;;;;;;0.80;0.80;;;10.00;99.90;;;;;;5095133;28;20208;-76
2020/12/24 05:34:35;;;;;;;0.60;0.32;;;10.00;99.90;;;;;;5076828;28;20185;-75
2020/12/24 05:37:11;;;;;;;0.57;0.57;;;9.90;99.90;;;;;;5094954;28;20162;-75
2020/12/24 05:39:38;;;;;;;0.10;0.10;;;9.90;99.90;;;;;;5094974;28;20173;-75
2020/12/24 05:42:05;;;;;;;2.42;0.88;;;9.90;99.90;;;;;;5095014;28;20193;-75
2020/12/24 05:44:31;;;;;;;2.80;1.10;;;9.90;99.90;;;;;;5077401;28;20186;-74
2020/12/24 05:46:57;;;;;;;0.35;0.35;;;9.90;99.90;;;;;;5076784;28;20181;-75
2020/12/24 05:49:23;;;;;;;0.30;0.30;;;9.90;99.90;;;;;;5094854;28;20177;-76
2020/12/24 05:51:57;;;;;;;0.57;0.55;;;10.00;99.90;;;;;;5076441;28;20257;-77
2020/12/24 05:54:23;;;;;;;15.40;0.57;;;9.90;99.90;;;;;;5094761;28;20409;-76
2020/12/24 05:56:49;;;;;;;0.88;0.73;;;9.70;99.90;;;;;;5076514;28;20169;-76
2020/12/24 05:59:17;;;;;;;0.60;0.60;;;9.80;99.90;;;;;;5094732;28;20174;-76
2020/12/24 06:01:58;;;;;;;0.43;0.43;;;9.70;99.90;;;;;;5094506;28;20199;-76
2020/12/24 06:04:42;;;;;;;0.63;0.63;;;9.70;99.90;;;;;;5094424;28;20646;-76
2020/12/24 06:07:09;;;;;;;0.10;0.10;;;9.70;99.90;;;;;;5094421;28;20161;-76
2020/12/24 06:09:37;;;;;;;0.17;0.17;;;9.80;99.90;;;;;;5094143;28;20681;-76
2020/12/24 06:12:23;;;;;;;0.85;0.85;;;9.70;99.90;;;;;;5094351;28;20158;-77
2020/12/24 06:14:54;;;;;;;0.47;0.47;;;9.70;99.90;;;;;;5094199;28;20186;-77
2020/12/24 06:17:22;;;;;;;0.30;0.30;;;9.70;99.90;;;;;;5094087;28;20211;-77
2020/12/24 06:19:48;;;;;;;0.30;0.30;;;9.70;99.90;;;;;;5075967;28;20165;-77
2020/12/24 06:22:16;;;;;;;3.30;1.65;;;9.70;99.90;;;;;;5093957;28;20201;-77
2020/12/24 06:25:02;;;;;;;11.27;1.42;;;9.60;99.90;;;;;;5093953;28;20660;-77
2020/12/24 06:27:35;;;;;;;0.20;0.20;;;9.70;99.90;;;;;;5075759;28;20188;-77
2020/12/24 06:30:07;;;;;;;0.57;0.57;;;9.80;99.90;;;;;;5075977;28;20174;-77
2020/12/24 06:32:38;;;;;;;0.82;0.82;;;9.60;99.90;;;;;;5093920;28;20165;-77
2020/12/24 06:35:04;;;;;;;0.20;0.20;;;9.60;99.90;;;;;;5093833;28;20194;-77
2020/12/24 06:37:39;;;;;;;0.10;0.10;;;9.60;99.90;;;;;;5093864;28;20162;-77
2020/12/24 06:40:05;;;;;;;0.10;0.10;;;9.50;99.90;;;;;;5093558;28;20192;-75
2020/12/24 06:42:37;;;;;;;0.20;0.20;;;9.70;99.90;;;;;;5093716;28;20621;-75
2020/12/24 06:45:05;;;;;;;8.52;1.75;;;9.80;99.90;;;;;;5093436;28;20657;-75
2020/12/24 06:47:30;;;;;;;0.10;0.10;;;9.70;99.90;;;;;;5093334;28;20233;-75
2020/12/24 06:49:56;;;;;;;0.10;0.10;;;9.80;99.90;;;;;;5093468;28;20173;-75
2020/12/24 06:52:31;;;;;;;0.57;0.57;;;9.80;99.90;;;;;;5093615;28;20551;-75
2020/12/24 06:55:16;;;;;;;0.10;0.10;;;10.00;99.90;;;;;;5093549;28;20193;-75
2020/12/24 06:57:43;;;;;;;0.30;0.30;;;9.90;99.90;;;;;;5101485;28;20181;-74
2020/12/24 07:00:19;;;;;;;1.02;1.00;;;9.90;99.90;;;;;;5099824;28;20173;-74
2020/12/24 07:02:49;;;;;;;1.10;1.00;;;9.80;99.90;;;;;;5096775;28;20201;-75
2020/12/24 07:05:39;;;;;;;1.75;1.52;;;9.60;99.90;;;;;;5093451;28;20200;-75
2020/12/24 07:08:05;;;;;;;4.38;1.45;;;9.40;99.90;;;;;;5093228;28;20158;-75
2020/12/24 07:10:48;;;;;;;0.75;0.75;;;9.30;99.90;;;;;;5075122;28;20628;-76
2020/12/24 07:13:36;;;;;;;2.42;1.77;;;9.20;99.90;;;;;;5093754;28;20166;-77
2020/12/24 07:16:03;;;;;;;1.30;1.20;;;9.10;99.90;;;;;;5093291;28;20249;-76
2020/12/24 07:18:31;;;;;;;0.85;0.85;;;9.00;99.90;;;;;;5088081;28;20178;-76
2020/12/24 07:21:01;;;;;;;2.20;1.98;;;8.90;99.90;;;;;;5075615;28;20242;-76
2020/12/24 07:23:30;;;;;;;0.50;0.50;;;8.60;99.90;;;;;;5073003;28;20257;-75
2020/12/24 07:25:58;;;;;;;1.23;1.13;;;8.50;99.90;;;;;;5072986;28;20183;-76
2020/12/24 07:28:29;;;;;;;1.48;1.45;;;8.30;99.90;;;;;;5074406;28;20257;-75
2020/12/24 07:30:55;;;;;;;0.47;0.47;;;8.30;99.90;;;;;;5077005;28;20155;-76
2020/12/24 07:33:21;;;;;;;3.10;1.88;;;8.40;99.90;;;;;;5077021;28;20162;-82
2020/12/24 07:35:47;;;;;;;0.77;0.77;;;8.50;99.90;;;;;;5077400;28;20686;-80
2020/12/24 07:38:12;;;;;;;0.93;0.93;;;8.60;99.90;;;;;;5059218;28;20210;-78
2020/12/24 07:40:40;;;;;;;0.75;0.75;;;8.50;99.90;;;;;;5058638;28;20683;-77
2020/12/24 07:43:10;;;;;;;0.32;0.32;;;8.20;99.90;;;;;;5076817;28;20206;-77
2020/12/24 07:45:36;;;;;;;0.20;0.20;;;8.00;99.90;;;;;;5076822;28;20657;-76
2020/12/24 07:48:01;;;;;;;0.17;0.17;;;7.50;99.90;;;;;;5076533;28;20210;-76
2020/12/24 07:50:31;;;;;;;0.15;0.15;;;7.30;99.90;;;;;;5076738;28;20163;-76
2020/12/24 07:52:57;;;;;;;0.10;0.10;;;7.20;99.90;;;;;;5076874;28;20175;-76
2020/12/24 07:55:23;;;;;;;0.32;0.30;;;7.10;99.90;;;;;;5076999;28;20187;-77
2020/12/24 07:57:48;;;;;;;0.20;0.20;;;6.80;99.90;;;;;;5076665;28;20618;-77
2020/12/24 08:00:14;;;;;;;0.20;0.20;;;6.80;99.90;;;;;;5076364;28;20170;-76
2020/12/24 08:02:40;;;;;;;0.60;0.60;;;6.80;99.90;;;;;;5076477;28;20580;-77
2020/12/24 08:05:05;;;;;;;0.30;0.30;;;6.70;99.90;;;;;;5076348;28;20191;-76
2020/12/24 08:07:31;;;;;;;0.10;0.10;;;6.60;99.90;;;;;;5058303;28;20177;-77
2020/12/24 08:10:10;;;;;;;0.20;0.20;;;6.50;99.90;;;;;;5076295;28;20217;-76
2020/12/24 08:12:36;;;;;;;0.35;0.35;;;6.40;99.90;;;;;;5058190;28;20202;-75
2020/12/24 08:15:16;;;;;;;0.10;0.10;;;6.20;99.90;;;;;;5076204;28;20258;-75
2020/12/24 08:17:49;;;;;;;0.10;0.10;;;6.20;99.90;;;;;;5076319;28;20203;-76
2020/12/24 08:20:17;;;;;;;0.10;0.10;;;6.10;99.90;;;;;;5076080;28;20289;-76
2020/12/24 08:22:52;;;;;;;0.75;0.52;;;6.10;99.90;;;;;;5076042;28;20641;-75
2020/12/24 08:25:18;;;;;;;0.10;0.10;;;6.10;99.90;;;;;;5075792;28;20664;-75
2020/12/24 08:27:47;;;;;;;0.20;0.20;;;6.00;99.90;;;;;;5058070;28;20212;-75
2020/12/24 08:30:15;;;;;;;0.10;0.10;;;6.00;99.90;;;;;;5076176;28;20561;-76
2020/12/24 08:32:42;;;;;;;0.30;0.30;;;6.00;99.90;;;;;;5075715;28;20209;-74
2020/12/24 08:35:16;;;;;;;0.22;0.22;;;6.00;99.90;;;;;;5075887;28;20610;-75
2020/12/24 08:37:42;;;;;;;0.10;0.10;;;6.00;99.90;;;;;;5076843;28;20277;-77
2020/12/24 08:40:18;;;;;;;0.30;0.30;;;6.10;99.90;;;;;;5076092;28;20587;-77
2020/12/24 08:42:46;;;;;;;0.15;0.15;;;6.10;99.90;;;;;;5076088;28;20189;-78
2020/12/24 08:45:13;;;;;;;0.20;0.20;;;6.10;99.90;;;;;;5075758;28;20178;-79
2020/12/24 08:47:38;;;;;;;0.10;0.10;;;6.10;99.90;;;;;;5075851;28;20677;-75
2020/12/24 08:50:04;;;;;;;0.30;0.30;;;6.10;99.90;;;;;;5076277;28;20187;-76
2020/12/24 08:52:38;;;;;;;0.40;0.40;;;6.10;99.90;;;;;;5075600;28;20680;-76
2020/12/24 08:55:05;;;;;;;0.10;0.10;;;6.10;99.90;;;;;;5075645;28;20186;-75
2020/12/24 08:57:31;;;;;;;0.10;0.10;;;6.10;99.90;;;;;;5057750;28;20174;-74
2020/12/24 09:00:01;;;;;;;0.10;0.10;;;6.10;99.90;;;;;;5075576;28;20154;-75
2020/12/24 09:02:32;;;;;;;0.10;0.10;;;6.10;99.90;;;;;;5075605;28;20202;-74
2020/12/24 09:04:59;;;;;;;0.10;0.10;;;6.00;99.90;;;;;;5075019;28;20194;-75
2020/12/24 09:07:33;;;;;;;0.10;0.10;;;6.10;99.90;;;;;;5076367;28;20621;-78
2020/12/24 09:10:17;;;;;;;0.10;0.10;;;6.10;99.90;;;;;;5057412;28;20171;-75
2020/12/24 09:12:44;;;;;;;0.10;0.10;;;6.20;99.90;;;;;;5057193;28;20206;-75
2020/12/24 09:15:12;;;;;;;0.10;0.10;;;6.30;99.90;;;;;;5075310;28;20182;-74
2020/12/24 09:17:49;;;;;;;3.30;0.40;;;6.40;99.90;;;;;;5075452;28;20182;-73
2020/12/24 09:20:21;;;;;;;0.13;0.13;;;6.40;99.90;;;;;;5075190;28;20212;-76
2020/12/24 09:23:01;;;;;;;0.10;0.10;;;6.40;99.90;;;;;;5076327;28;20174;-77
2020/12/24 09:25:41;;;;;;;0.32;0.32;;;6.40;99.90;;;;;;5075910;28;20715;-75
2020/12/24 09:28:23;;;;;;;3.97;0.25;;;6.40;99.90;;;;;;5089270;28;20201;-74
2020/12/24 09:30:50;;;;;;;0.10;0.10;;;6.40;99.90;;;;;;5095741;28;20174;-74
2020/12/24 09:33:18;;;;;;;0.10;0.10;;;6.40;99.90;;;;;;5077773;28;20684;-73
2020/12/24 09:35:45;;;;;;;0.40;0.40;;;6.40;99.90;;;;;;5075953;28;20186;-74
2020/12/24 09:38:10;;;;;;;0.30;0.30;;;6.40;99.90;;;;;;5076581;28;20154;-75
2020/12/24 09:40:38;;;;;;;0.28;0.28;;;6.40;99.90;;;;;;5074910;28;20163;-76
2020/12/24 09:43:04;;;;;;;0.10;0.10;;;6.40;99.90;;;;;;5074746;28;20163;-76
2020/12/24 09:45:30;;;;;;;0.30;0.30;;;6.30;99.90;;;;;;5074428;28;20186;-76
2020/12/24 09:47:56;;;;;;;0.10;0.10;;;6.30;99.90;;;;;;5056441;28;20226;-76
2020/12/24 09:50:22;;;;;;;0.20;0.20;;;6.40;99.90;;;;;;5074540;28;20703;-75
2020/12/24 09:52:48;;;;;;;0.10;0.10;;;6.40;99.90;;;;;;5074098;28;20202;-76
2020/12/24 09:55:13;;;;;;;0.22;0.22;;;6.50;99.90;;;;;;5074322;28;20243;-73
2020/12/24 09:57:39;;;;;;;0.10;0.10;;;6.50;99.90;;;;;;5074738;28;20180;-73
2020/12/24 10:00:08;;;;;;;0.20;0.20;;;6.60;99.90;;;;;;5075237;28;20189;-75
2020/12/24 10:02:33;;;;;;;0.10;0.10;;;6.60;99.90;;;;;;5075182;28;20168;-75
2020/12/24 10:04:59;;;;;;;0.20;0.20;;;6.60;99.90;;;;;;5074637;28;20190;-75
2020/12/24 10:07:25;;;;;;;0.20;0.20;;;6.60;99.90;;;;;;5074187;28;20524;-75
2020/12/24 10:09:52;;;;;;;0.30;0.30;;;6.60;99.90;;;;;;5074239;28;20563;-76
2020/12/24 10:12:22;;;;;;;0.20;0.20;;;6.60;99.90;;;;;;5074323;28;20206;-82
2020/12/24 10:14:48;;;;;;;0.45;0.35;;;6.60;99.90;;;;;;5056334;28;20186;-77
2020/12/24 10:17:14;;;;;;;0.90;0.45;;;6.60;99.90;;;;;;5055925;28;20190;-77
2020/12/24 10:19:43;;;;;;;4.15;0.98;;;6.60;99.90;;;;;;5074132;28;20181;-75
2020/12/24 10:22:09;;;;;;;3.25;0.52;;;6.70;99.90;;;;;;5074100;28;20154;-75
2020/12/24 10:24:35;;;;;;;0.10;0.10;;;6.80;99.90;;;;;;5073719;28;20186;-75
2020/12/24 10:27:01;;;;;;;0.10;0.10;;;6.80;99.90;;;;;;5074001;28;20507;-75
2020/12/24 10:29:26;;;;;;;0.57;0.57;;;7.00;99.90;;;;;;5073660;28;20626;-74
2020/12/24 10:31:52;;;;;;;0.10;0.10;;;6.90;99.90;;;;;;5073524;28;20197;-75
2020/12/24 10:34:18;;;;;;;0.20;0.20;;;6.90;99.90;;;;;;5073699;28;20190;-76
2020/12/24 10:36:43;;;;;;;0.30;0.30;;;6.90;99.90;;;;;;5073699;28;20249;-75
2020/12/24 10:39:09;;;;;;;0.30;0.30;;;6.90;99.90;;;;;;5073545;28;20174;-75
2020/12/24 10:41:39;;;;;;;0.20;0.20;;;6.80;99.90;;;;;;5073587;28;20230;-76
2020/12/24 10:44:06;;;;;;;0.80;0.80;;;6.80;99.90;;;;;;5073298;28;20189;-75
2020/12/24 10:46:32;;;;;;;0.10;0.10;;;6.90;99.90;;;;;;5073439;28;20163;-75
2020/12/24 10:48:57;;;;;;;0.10;0.10;;;7.00;99.90;;;;;;5073281;28;20317;-75
2020/12/24 10:51:23;;;;;;;0.22;0.22;;;7.00;99.90;;;;;;5073568;28;20463;-81
2020/12/24 10:53:49;;;;;;;4.55;0.88;;;7.20;99.90;;;;;;5073233;28;20600;-77
2020/12/24 10:56:15;;;;;;;1.75;0.95;;;7.30;99.90;;;;;;5073381;28;20166;-75
2020/12/24 10:58:42;;;;;;;0.28;0.28;;;7.20;99.90;;;;;;5073256;28;20610;-75
2020/12/24 11:01:15;;;;;;;0.50;0.50;;;7.20;99.90;;;;;;5073488;28;20155;-75
2020/12/24 11:03:41;;;;;;;0.20;0.20;;;7.30;99.90;;;;;;5072409;28;20256;-76
2020/12/24 11:06:19;;;;;;;0.17;0.17;;;7.40;99.90;;;;;;5073060;28;20606;-76
2020/12/24 11:08:45;;;;;;;0.25;0.25;;;7.50;99.90;;;;;;5076424;28;20180;-75
2020/12/24 11:11:12;;;;;;;0.10;0.10;;;7.50;99.90;;;;;;5091402;28;20629;-74
2020/12/24 11:13:38;;;;;;;0.10;0.10;;;7.50;99.90;;;;;;5092521;28;20656;-75
2020/12/24 11:16:04;;;;;;;0.10;0.10;;;7.50;99.90;;;;;;5092151;28;20162;-75
2020/12/24 11:18:30;;;;;;;0.25;0.25;;;7.20;99.90;;;;;;5092077;28;20629;-76
2020/12/24 11:20:56;;;;;;;0.47;0.40;;;7.10;99.90;;;;;;5092031;28;20166;-74
2020/12/24 11:23:22;;;;;;;0.10;0.10;;;7.20;99.90;;;;;;5091927;28;20158;-73
2020/12/24 11:25:47;;;;;;;0.25;0.25;;;7.10;99.90;;;;;;5091959;28;20190;-73
2020/12/24 11:28:13;;;;;;;0.20;0.20;;;7.20;99.90;;;;;;5092350;28;20169;-73
2020/12/24 11:30:38;;;;;;;0.30;0.30;;;7.20;99.90;;;;;;5091734;28;20188;-76
2020/12/24 11:33:04;;;;;;;0.10;0.10;;;7.20;99.90;;;;;;5108844;28;20308;-74
2020/12/24 11:35:30;;;;;;;0.10;0.10;;;7.10;99.90;;;;;;5091419;28;20544;-75
2020/12/24 11:37:55;;;;;;;3.72;0.57;;;7.10;99.90;;;;;;5091879;28;20177;-75
2020/12/24 11:40:21;;;;;;;0.57;0.52;;;7.10;99.90;;;;;;5091898;28;20165;-75
2020/12/24 11:42:46;;;;;;;0.10;0.10;;;7.20;99.90;;;;;;5091632;28;20170;-74
2020/12/24 11:45:12;;;;;;;0.10;0.10;;;7.40;99.90;;;;;;5091655;28;20182;-74
2020/12/24 11:47:38;;;;;;;0.20;0.20;;;7.50;99.90;;;;;;5091823;28;20213;-74
2020/12/24 11:50:04;;;;;;;0.40;0.40;;;7.50;99.90;;;;;;5092013;28;20166;-73
2020/12/24 11:52:33;;;;;;;1.10;0.52;;;7.40;99.90;;;;;;5092697;28;20201;-73
2020/12/24 11:54:59;;;;;;;1.42;0.50;;;7.40;99.90;;;;;;5092486;28;20641;-74
2020/12/24 11:57:25;;;;;;;0.10;0.10;;;7.40;99.90;;;;;;5094395;28;20246;-74
2020/12/24 11:59:51;;;;;;;0.20;0.20;;;7.40;99.90;;;;;;5104900;28;20170;-74
2020/12/24 12:02:16;;;;;;;0.10;0.10;;;7.40;99.90;;;;;;5105244;28;20189;-75
2020/12/24 12:04:42;;;;;;;0.70;0.65;;;7.40;99.90;;;;;;5103363;28;20239;-77
2020/12/24 12:07:07;;;;;;;0.65;0.65;;;7.60;99.90;;;;;;5092925;28;20174;-74
2020/12/24 12:09:33;;;;;;;0.13;0.13;;;7.90;99.90;;;;;;5073330;28;20663;-75
2020/12/24 12:11:59;;;;;;;0.47;0.47;;;7.80;99.90;;;;;;5091275;28;20557;-75
2020/12/24 12:14:24;;;;;;;0.47;0.47;;;8.00;99.90;;;;;;5093140;28;20215;-76
2020/12/24 12:16:50;;;;;;;11.10;1.98;;;8.20;99.90;;;;;;5095269;28;20252;-75
2020/12/24 12:19:16;;;;;;;0.22;0.22;;;8.30;99.90;;;;;;5095430;28;20173;-75
2020/12/24 12:21:41;;;;;;;0.10;0.10;;;8.50;99.90;;;;;;5094997;28;20643;-74
2020/12/24 12:24:07;;;;;;;6.22;0.68;;;8.40;99.90;;;;;;5095874;28;20182;-76
2020/12/24 12:26:33;;;;;;;0.90;0.90;;;8.40;99.90;;;;;;5095394;28;20176;-75
2020/12/24 12:28:58;;;;;;;0.10;0.10;;;8.50;99.90;;;;;;5095311;28;20227;-75
2020/12/24 12:31:24;;;;;;;4.22;1.15;;;8.60;99.90;;;;;;5094820;28;20201;-74
2020/12/24 12:33:54;;;;;;;0.15;0.15;;;8.60;99.90;;;;;;5095189;28;20249;-76
2020/12/24 12:36:20;;;;;;;0.20;0.20;;;8.80;99.90;;;;;;5095053;28;20648;-81
2020/12/24 12:38:48;;;;;;;0.15;0.15;;;8.80;99.90;;;;;;5078173;28;20177;-85
2020/12/24 12:41:18;;;;;;;0.17;0.17;;;8.90;99.90;;;;;;5095589;28;20181;-76
2020/12/24 12:43:44;;;;;;;1.10;0.57;;;9.00;99.90;;;;;;5094856;28;20169;-82
2020/12/24 12:46:10;;;;;;;0.30;0.30;;;9.20;99.90;;;;;;5094520;28;20170;-77
2020/12/24 12:48:36;;;;;;;0.25;0.25;;;9.10;99.90;;;;;;5094281;28;20228;-74
2020/12/24 12:51:03;;;;;;;13.25;0.95;;;9.00;99.90;;;;;;5094791;28;20201;-78
2020/12/24 12:53:28;;;;;;;0.95;0.73;;;8.80;99.90;;;;;;5094625;28;20181;-76